createdAt,value
2024-03-15T00:00:15.794Z,10.10
2024-03-15T00:02:46.578Z,10.00
2024-03-15T00:05:15.161Z,10.00
2024-03-15T00:07:43.700Z,10.00
2024-03-15T00:10:12.163Z,10.00
2024-03-15T00:12:40.696Z,10.00
2024-03-15T00:15:10.578Z,10.00
2024-03-15T00:17:39.210Z,10.00
2024-03-15T00:20:09.220Z,10.00
2024-03-15T00:22:38.023Z,10.00
2024-03-15T00:25:08.335Z,10.00
2024-03-15T00:27:36.885Z,10.00
2024-03-15T00:30:06.740Z,10.00
2024-03-15T00:32:35.388Z,10.00
2024-03-15T00:35:04.116Z,10.00
2024-03-15T00:37:32.625Z,10.00
2024-03-15T00:40:01.079Z,10.00
2024-03-15T00:42:30.392Z,10.10
2024-03-15T00:44:59.034Z,10.10
2024-03-15T00:47:27.592Z,10.10
2024-03-15T00:49:56.076Z,10.10
2024-03-15T00:52:24.709Z,10.10
2024-03-15T00:54:53.253Z,10.10
2024-03-15T00:57:21.740Z,10.10
2024-03-15T00:59:50.216Z,10.00
2024-03-15T01:02:18.729Z,10.00
2024-03-15T01:04:47.334Z,10.00
2024-03-15T01:07:15.868Z,10.00
2024-03-15T01:09:44.412Z,10.00
2024-03-15T01:12:14.778Z,10.00
2024-03-15T01:14:43.297Z,9.90
2024-03-15T01:17:11.757Z,9.90
2024-03-15T01:19:40.279Z,9.90
2024-03-15T01:22:09.158Z,9.80
2024-03-15T01:24:37.711Z,9.80
2024-03-15T01:27:06.470Z,9.80
2024-03-15T01:29:34.993Z,9.80
2024-03-15T01:32:03.440Z,9.80
2024-03-15T01:34:32.091Z,9.80
2024-03-15T01:37:00.560Z,9.70
2024-03-15T01:39:29.274Z,9.70
2024-03-15T01:41:57.732Z,9.70
2024-03-15T01:44:26.200Z,9.70
2024-03-15T01:46:54.658Z,9.60
2024-03-15T01:49:23.137Z,9.50
2024-03-15T01:51:51.614Z,9.40
2024-03-15T01:54:20.126Z,9.40
2024-03-15T01:56:48.632Z,9.40
2024-03-15T01:59:17.112Z,9.30
2024-03-15T02:01:48.996Z,9.30
2024-03-15T02:04:18.052Z,9.20
2024-03-15T02:06:46.676Z,9.10
2024-03-15T02:09:15.489Z,9.10
2024-03-15T02:11:44.168Z,9.00
2024-03-15T02:14:12.632Z,9.10
2024-03-15T02:16:41.114Z,9.10
2024-03-15T02:19:11.328Z,9.10
2024-03-15T02:21:39.876Z,9.10
2024-03-15T02:24:08.416Z,9.10
2024-03-15T02:26:37.709Z,9.10
2024-03-15T02:29:09.107Z,9.10
2024-03-15T02:31:38.119Z,9.10
2024-03-15T02:34:06.630Z,9.10
2024-03-15T02:36:35.305Z,9.10
2024-03-15T02:39:03.852Z,9.20
2024-03-15T02:41:32.999Z,9.20
2024-03-15T02:44:02.112Z,9.20
2024-03-15T02:46:30.650Z,9.20
2024-03-15T02:49:01.498Z,9.30
2024-03-15T02:51:30.156Z,9.30
2024-03-15T02:53:58.650Z,9.40
2024-03-15T02:56:27.328Z,9.50
2024-03-15T02:58:55.794Z,9.70
2024-03-15T03:01:26.602Z,9.80
2024-03-15T03:03:56.332Z,9.80
2024-03-15T03:06:25.508Z,9.70
2024-03-15T03:08:54.133Z,9.70
2024-03-15T03:11:22.572Z,9.70
2024-03-15T03:13:50.067Z,9.70
2024-03-15T03:16:21.954Z,9.80
2024-03-15T03:18:50.480Z,9.80
2024-03-15T03:21:18.968Z,9.80
2024-03-15T03:23:47.503Z,9.70
2024-03-15T03:26:16.141Z,9.70
2024-03-15T03:28:44.611Z,9.60
2024-03-15T03:31:13.033Z,9.60
2024-03-15T03:33:41.577Z,9.50
2024-03-15T03:36:10.108Z,9.50
2024-03-15T03:38:38.608Z,9.50
2024-03-15T03:41:07.978Z,9.50
2024-03-15T03:43:36.532Z,9.50
2024-03-15T03:46:08.099Z,9.50
2024-03-15T03:48:36.705Z,9.60
2024-03-15T03:51:05.598Z,9.50
2024-03-15T03:53:35.228Z,9.40
2024-03-15T03:56:03.745Z,9.30
2024-03-15T03:58:32.212Z,9.30
2024-03-15T04:01:03.598Z,9.20
2024-03-15T04:03:32.594Z,9.10
2024-03-15T04:06:01.541Z,9.10
2024-03-15T04:08:30.016Z,8.90
2024-03-15T04:10:58.537Z,8.80
2024-03-15T04:13:26.955Z,8.70
2024-03-15T04:15:55.666Z,8.70
2024-03-15T04:18:24.352Z,8.60
2024-03-15T04:20:53.549Z,8.60
2024-03-15T04:23:23.230Z,8.60
2024-03-15T04:25:51.740Z,8.50
2024-03-15T04:28:20.675Z,8.60
2024-03-15T04:30:49.894Z,8.80
2024-03-15T04:33:19.122Z,8.80
2024-03-15T04:35:47.720Z,8.80
2024-03-15T04:38:16.219Z,8.80
2024-03-15T04:40:45.107Z,8.70
2024-03-15T04:43:13.625Z,8.80
2024-03-15T04:45:42.096Z,8.80
2024-03-15T04:48:10.683Z,8.90
2024-03-15T04:50:39.161Z,8.80
2024-03-15T04:53:07.652Z,8.60
2024-03-15T04:55:36.176Z,8.60
2024-03-15T04:58:04.798Z,8.60
2024-03-15T05:00:33.237Z,8.60
2024-03-15T05:03:02.018Z,8.80
2024-03-15T05:05:30.490Z,8.90
2024-03-15T05:07:58.989Z,9.10
2024-03-15T05:10:27.705Z,9.10
2024-03-15T05:12:56.567Z,9.30
2024-03-15T05:15:25.072Z,9.40
2024-03-15T05:17:53.601Z,9.40
2024-03-15T05:20:22.083Z,9.40
2024-03-15T05:22:51.083Z,9.40
2024-03-15T05:25:19.700Z,9.40
2024-03-15T05:27:48.520Z,9.30
2024-03-15T05:30:19.936Z,9.20
2024-03-15T05:32:49.016Z,9.20
2024-03-15T05:35:20.310Z,9.20
2024-03-15T05:37:48.988Z,9.20
2024-03-15T05:40:19.224Z,9.30
2024-03-15T05:42:49.201Z,9.40
2024-03-15T05:45:19.048Z,9.40
2024-03-15T05:47:48.245Z,9.50
2024-03-15T05:50:16.855Z,9.60
2024-03-15T05:52:45.372Z,9.60
2024-03-15T05:55:14.783Z,9.70
2024-03-15T05:57:43.325Z,9.70
2024-03-15T06:00:17.137Z,9.70
2024-03-15T06:02:46.523Z,9.60
2024-03-15T06:05:15.093Z,9.60
2024-03-15T06:07:43.924Z,9.70
2024-03-15T06:10:12.453Z,9.90
2024-03-15T06:12:41.002Z,10.30
2024-03-15T06:15:10.909Z,10.60
2024-03-15T06:17:41.170Z,11.00
2024-03-15T06:20:11.669Z,11.40
2024-03-15T06:22:40.648Z,11.40
2024-03-15T06:25:09.347Z,11.30
2024-03-15T06:27:40.566Z,11.20
2024-03-15T06:30:11.225Z,11.00
2024-03-15T06:32:41.294Z,10.80
2024-03-15T06:35:28.272Z,10.80
2024-03-15T06:38:08.641Z,10.70
2024-03-15T06:40:57.376Z,10.60
2024-03-15T06:43:41.455Z,10.70
2024-03-15T06:46:11.016Z,10.70
2024-03-15T06:48:56.704Z,10.60
2024-03-15T06:51:43.052Z,10.50
2024-03-15T06:54:12.762Z,10.40
2024-03-15T06:56:43.163Z,10.20
2024-03-15T06:59:12.954Z,10.20
2024-03-15T07:01:41.539Z,10.10
2024-03-15T07:04:10.237Z,10.10
2024-03-15T07:06:38.847Z,10.10
2024-03-15T07:09:12.881Z,10.20
2024-03-15T07:11:41.745Z,10.20
2024-03-15T07:14:10.829Z,10.30
2024-03-15T07:16:39.315Z,10.40
2024-03-15T07:19:08.118Z,10.50
2024-03-15T07:21:39.433Z,10.60
2024-03-15T07:24:09.114Z,10.70
2024-03-15T07:26:38.500Z,10.80
2024-03-15T07:29:07.071Z,10.90
2024-03-15T07:31:36.066Z,11.00
2024-03-15T07:34:06.850Z,11.10
2024-03-15T07:36:35.525Z,11.40
2024-03-15T07:39:04.727Z,11.70
2024-03-15T07:41:35.554Z,11.70
2024-03-15T07:44:04.968Z,11.70
2024-03-15T07:46:34.154Z,11.60
2024-03-15T07:49:02.734Z,11.60
2024-03-15T07:51:32.252Z,11.50
2024-03-15T07:54:00.776Z,11.50
2024-03-15T07:56:29.328Z,11.50
2024-03-15T07:58:58.508Z,11.50
2024-03-15T08:01:27.059Z,11.50
2024-03-15T08:03:55.637Z,11.50
2024-03-15T08:06:24.279Z,11.50
2024-03-15T08:08:53.478Z,11.40
2024-03-15T08:11:22.248Z,11.40
2024-03-15T08:13:50.714Z,11.30
2024-03-15T08:16:25.167Z,11.30
2024-03-15T08:18:55.014Z,11.30
2024-03-15T08:21:26.025Z,11.20
2024-03-15T08:23:54.685Z,11.10
2024-03-15T08:26:23.232Z,11.10
2024-03-15T08:28:52.081Z,11.00
2024-03-15T08:31:20.632Z,11.00
2024-03-15T08:33:49.895Z,10.90
2024-03-15T08:36:18.441Z,10.90
2024-03-15T08:38:47.441Z,10.90
2024-03-15T08:41:15.928Z,10.90
2024-03-15T08:43:44.372Z,10.90
2024-03-15T08:46:12.909Z,10.90
2024-03-15T08:48:43.422Z,10.90
2024-03-15T08:51:13.157Z,10.90
2024-03-15T08:53:43.358Z,10.90
2024-03-15T08:56:11.844Z,11.00
2024-03-15T08:58:40.333Z,11.00
2024-03-15T09:01:08.940Z,11.00
2024-03-15T09:03:39.900Z,11.00
2024-03-15T09:06:09.650Z,11.00
2024-03-15T09:08:38.427Z,11.00
2024-03-15T09:11:08.095Z,11.00
2024-03-15T09:13:39.490Z,11.10
2024-03-15T09:16:10.915Z,11.20
2024-03-15T09:18:40.033Z,11.30
2024-03-15T09:21:10.306Z,11.50
2024-03-15T09:23:38.985Z,11.60
2024-03-15T09:26:08.509Z,11.70
2024-03-15T09:28:39.492Z,11.80
2024-03-15T09:31:18.555Z,11.90
2024-03-15T09:33:59.467Z,12.00
2024-03-15T09:36:29.662Z,12.10
2024-03-15T09:38:58.292Z,12.20
2024-03-15T09:41:26.740Z,12.40
2024-03-15T09:43:55.795Z,12.50
2024-03-15T09:46:26.378Z,12.30
2024-03-15T09:48:57.897Z,12.10
2024-03-15T09:51:26.855Z,11.90
2024-03-15T09:53:55.356Z,11.70
2024-03-15T09:56:23.844Z,11.60
2024-03-15T09:58:52.303Z,11.50
2024-03-15T10:01:21.079Z,11.40
2024-03-15T10:03:50.133Z,11.40
2024-03-15T10:06:18.844Z,11.40
2024-03-15T10:08:47.403Z,11.30
2024-03-15T10:11:15.888Z,11.20
2024-03-15T10:13:44.566Z,11.10
2024-03-15T10:16:13.972Z,11.10
2024-03-15T10:18:42.519Z,11.00
2024-03-15T10:21:11.261Z,11.00
2024-03-15T10:23:39.983Z,11.00
2024-03-15T10:26:09.278Z,11.10
2024-03-15T10:28:37.768Z,11.10
2024-03-15T10:31:06.369Z,11.20
2024-03-15T10:33:37.141Z,11.20
2024-03-15T10:36:09.937Z,11.30
2024-03-15T10:38:39.757Z,11.40
2024-03-15T10:41:08.312Z,11.40
2024-03-15T10:43:37.076Z,11.40
2024-03-15T10:46:06.415Z,11.40
2024-03-15T10:48:35.188Z,11.30
2024-03-15T10:51:03.796Z,11.30
2024-03-15T10:53:32.283Z,11.30
2024-03-15T10:56:01.340Z,11.40
2024-03-15T10:58:31.045Z,11.30
2024-03-15T11:00:59.681Z,11.20
2024-03-15T11:03:31.975Z,11.20
2024-03-15T11:06:03.224Z,11.20
2024-03-15T11:08:35.327Z,11.10
2024-03-15T11:11:04.061Z,11.00
2024-03-15T11:13:34.967Z,11.00
2024-03-15T11:16:03.602Z,11.10
2024-03-15T11:18:41.341Z,11.10
2024-03-15T11:21:10.624Z,11.00
2024-03-15T11:23:39.128Z,11.00
2024-03-15T11:26:09.487Z,11.10
2024-03-15T11:28:38.149Z,11.30
2024-03-15T11:31:06.740Z,11.50
2024-03-15T11:33:35.300Z,11.60
2024-03-15T11:36:03.926Z,11.80
2024-03-15T11:38:32.380Z,12.00
2024-03-15T11:41:01.940Z,12.10
2024-03-15T11:43:31.089Z,12.00
2024-03-15T11:45:59.649Z,12.10
2024-03-15T11:48:28.290Z,12.30
2024-03-15T11:50:56.837Z,12.50
2024-03-15T11:53:25.271Z,12.70
2024-03-15T11:55:53.792Z,13.10
2024-03-15T11:58:22.342Z,13.40
2024-03-15T12:00:51.094Z,13.60
2024-03-15T12:03:19.831Z,13.60
2024-03-15T12:05:48.355Z,13.50
2024-03-15T12:08:16.838Z,13.50
2024-03-15T12:10:45.990Z,13.70
2024-03-15T12:13:17.787Z,13.90
2024-03-15T12:15:47.065Z,14.20
2024-03-15T12:18:16.228Z,14.70
2024-03-15T12:20:44.873Z,14.60
2024-03-15T12:23:14.131Z,14.50
2024-03-15T12:25:42.668Z,14.30
2024-03-15T12:28:12.012Z,14.30
2024-03-15T12:30:42.091Z,14.10
2024-03-15T12:33:11.287Z,13.90
2024-03-15T12:35:40.866Z,13.70
2024-03-15T12:38:10.244Z,13.60
2024-03-15T12:40:44.397Z,13.50
2024-03-15T12:43:13.354Z,13.50
2024-03-15T12:45:43.090Z,13.60
2024-03-15T12:48:12.757Z,13.50
2024-03-15T12:50:42.147Z,13.40
2024-03-15T12:53:11.300Z,13.30
2024-03-15T12:55:41.510Z,13.20
2024-03-15T12:58:10.536Z,13.10
2024-03-15T13:00:39.369Z,13.10
2024-03-15T13:03:10.142Z,13.10
2024-03-15T13:05:38.866Z,13.20
2024-03-15T13:08:07.500Z,13.40
2024-03-15T13:10:35.946Z,13.50
2024-03-15T13:13:05.937Z,13.40
2024-03-15T13:15:35.185Z,13.30
2024-03-15T13:18:03.987Z,13.20
2024-03-15T13:20:32.607Z,13.20
2024-03-15T13:23:06.035Z,13.20
2024-03-15T13:25:38.171Z,13.20
2024-03-15T13:28:09.152Z,13.30
2024-03-15T13:30:39.567Z,13.30
2024-03-15T13:33:11.162Z,13.40
2024-03-15T13:35:43.250Z,13.40
2024-03-15T13:38:15.757Z,13.30
2024-03-15T13:40:45.156Z,13.10
2024-03-15T13:43:14.195Z,13.10
2024-03-15T13:45:42.856Z,13.00
2024-03-15T13:48:13.426Z,13.00
2024-03-15T13:50:42.430Z,13.30
2024-03-15T13:53:10.898Z,13.60
2024-03-15T13:55:40.845Z,13.70
2024-03-15T13:58:09.773Z,13.80
2024-03-15T14:00:41.979Z,14.10
2024-03-15T14:03:11.200Z,14.20
2024-03-15T14:05:41.025Z,14.30
2024-03-15T14:08:10.426Z,14.20
2024-03-15T14:10:39.562Z,14.20
2024-03-15T14:13:08.327Z,14.20
2024-03-15T14:15:38.324Z,14.10
2024-03-15T14:18:09.206Z,13.90
2024-03-15T14:20:38.334Z,13.80
2024-03-15T14:23:06.845Z,13.80
2024-03-15T14:25:35.516Z,13.90
2024-03-15T14:28:06.964Z,13.80
2024-03-15T14:30:37.486Z,13.90
2024-03-15T14:33:08.785Z,13.90
2024-03-15T14:35:37.605Z,13.90
2024-03-15T14:38:09.922Z,14.00
2024-03-15T14:40:40.457Z,14.40
2024-03-15T14:43:12.752Z,14.90
2024-03-15T14:45:41.943Z,15.20
2024-03-15T14:48:15.494Z,15.10
2024-03-15T14:50:45.541Z,14.90
2024-03-15T14:53:17.180Z,14.80
2024-03-15T14:55:47.052Z,14.70
2024-03-15T14:58:16.156Z,14.80
2024-03-15T15:00:49.695Z,14.90
2024-03-15T15:03:19.057Z,14.80
2024-03-15T15:05:48.082Z,14.70
2024-03-15T15:08:16.665Z,14.60
2024-03-15T15:10:45.257Z,14.50
2024-03-15T15:13:14.040Z,14.50
2024-03-15T15:15:43.343Z,14.40
2024-03-15T15:18:13.104Z,14.30
2024-03-15T15:20:43.585Z,14.10
2024-03-15T15:23:12.312Z,14.00
2024-03-15T15:25:41.284Z,13.90
2024-03-15T15:28:10.257Z,13.80
2024-03-15T15:30:39.218Z,13.70
2024-03-15T15:33:09.308Z,13.50
2024-03-15T15:35:38.733Z,13.40
2024-03-15T15:38:08.856Z,13.30
2024-03-15T15:40:39.072Z,13.20
2024-03-15T15:43:08.212Z,13.20
2024-03-15T15:45:38.400Z,13.40
2024-03-15T15:48:09.240Z,13.40
2024-03-15T15:50:39.012Z,13.40
2024-03-15T15:53:07.505Z,13.30
2024-03-15T15:55:37.305Z,13.30
2024-03-15T15:58:06.404Z,13.20
2024-03-15T16:00:34.130Z,13.20
2024-03-15T16:03:04.341Z,13.20
2024-03-15T16:05:33.770Z,13.10
2024-03-15T16:08:04.359Z,13.00
2024-03-15T16:10:33.268Z,12.90
2024-03-15T16:13:02.758Z,12.90
2024-03-15T16:15:31.744Z,12.80
2024-03-15T16:18:00.409Z,12.70
2024-03-15T16:20:29.658Z,12.60
2024-03-15T16:22:59.375Z,12.60
2024-03-15T16:25:27.811Z,12.60
2024-03-15T16:27:56.337Z,12.60
2024-03-15T16:30:25.183Z,12.40
2024-03-15T16:33:01.683Z,12.40
2024-03-15T16:35:32.735Z,12.40
2024-03-15T16:38:01.286Z,12.40
2024-03-15T16:40:29.948Z,12.30
2024-03-15T16:43:00.230Z,12.20
2024-03-15T16:45:29.003Z,12.20
2024-03-15T16:47:57.673Z,12.10
2024-03-15T16:50:26.766Z,12.10
2024-03-15T16:52:55.386Z,12.10
2024-03-15T16:55:25.049Z,12.20
2024-03-15T16:57:53.714Z,12.20
2024-03-15T17:00:23.507Z,12.30
2024-03-15T17:02:53.419Z,12.20
2024-03-15T17:05:22.015Z,12.20
2024-03-15T17:07:53.151Z,12.20
2024-03-15T17:10:22.858Z,12.20
2024-03-15T17:12:51.835Z,12.00
2024-03-15T17:15:20.615Z,11.90
2024-03-15T17:17:49.361Z,11.80
2024-03-15T17:20:19.787Z,11.70
2024-03-15T17:22:48.252Z,11.60
2024-03-15T17:25:16.941Z,11.50
2024-03-15T17:27:45.398Z,11.50
2024-03-15T17:30:16.786Z,11.40
2024-03-15T17:32:45.570Z,11.40
2024-03-15T17:35:14.157Z,11.40
2024-03-15T17:37:44.076Z,11.30
2024-03-15T17:40:14.120Z,11.30
2024-03-15T17:42:42.753Z,11.20
2024-03-15T17:45:11.598Z,11.10
2024-03-15T17:47:40.356Z,11.10
2024-03-15T17:50:09.427Z,11.00
2024-03-15T17:52:39.502Z,11.00
2024-03-15T17:55:09.416Z,10.90
2024-03-15T17:57:39.115Z,10.80
2024-03-15T18:00:14.293Z,10.80
2024-03-15T18:02:45.407Z,10.80
2024-03-15T18:05:14.499Z,10.70
2024-03-15T18:07:43.103Z,10.80
2024-03-15T18:10:11.935Z,10.80
2024-03-15T18:12:40.779Z,10.80
2024-03-15T18:15:10.183Z,10.80
2024-03-15T18:17:39.358Z,10.80
2024-03-15T18:20:10.286Z,10.80
2024-03-15T18:22:39.052Z,10.80
2024-03-15T18:25:09.437Z,10.80
2024-03-15T18:27:38.191Z,10.80
2024-03-15T18:30:07.424Z,10.80
2024-03-15T18:32:35.933Z,10.70
2024-03-15T18:35:05.282Z,10.70
2024-03-15T18:37:34.125Z,10.80
2024-03-15T18:40:02.802Z,10.80
2024-03-15T18:42:31.337Z,10.90
2024-03-15T18:45:02.111Z,10.90
2024-03-15T18:47:31.644Z,11.00
2024-03-15T18:50:00.319Z,11.00
2024-03-15T18:52:28.779Z,11.00
2024-03-15T18:54:58.345Z,11.00
2024-03-15T18:57:27.651Z,11.00
2024-03-15T18:59:59.516Z,10.90
2024-03-15T19:02:28.172Z,11.00
2024-03-15T19:04:56.677Z,11.00
2024-03-15T19:07:25.367Z,10.80
2024-03-15T19:09:53.983Z,10.60
2024-03-15T19:12:22.695Z,10.20
2024-03-15T19:14:51.196Z,9.90
2024-03-15T19:17:19.669Z,9.60
2024-03-15T19:19:48.459Z,9.40
2024-03-15T19:22:16.937Z,9.40
2024-03-15T19:24:46.554Z,9.20
2024-03-15T19:27:14.058Z,9.10
2024-03-15T19:29:42.488Z,9.10
2024-03-15T19:32:12.467Z,9.10
2024-03-15T19:34:41.101Z,9.00
2024-03-15T19:37:09.798Z,9.00
2024-03-15T19:39:38.711Z,8.90
2024-03-15T19:42:07.366Z,8.90
2024-03-15T19:44:35.809Z,8.90
2024-03-15T19:47:05.592Z,8.90
2024-03-15T19:49:34.212Z,8.90
2024-03-15T19:52:02.920Z,8.80
2024-03-15T19:54:31.472Z,8.70
2024-03-15T19:56:59.953Z,8.70
2024-03-15T19:59:28.479Z,8.60
2024-03-15T20:01:57.285Z,8.60
2024-03-15T20:04:28.205Z,8.50
2024-03-15T20:06:58.041Z,8.50
2024-03-15T20:09:26.688Z,8.40
2024-03-15T20:11:55.441Z,8.30
2024-03-15T20:14:23.997Z,8.30
2024-03-15T20:16:52.466Z,8.30
2024-03-15T20:19:22.969Z,8.30
2024-03-15T20:21:51.659Z,8.30
2024-03-15T20:24:21.186Z,8.20
2024-03-15T20:26:50.655Z,8.30
2024-03-15T20:29:19.176Z,8.30
2024-03-15T20:31:47.623Z,8.30
2024-03-15T20:34:16.093Z,8.30
2024-03-15T20:36:44.583Z,8.40
2024-03-15T20:39:15.468Z,8.30
2024-03-15T20:41:44.152Z,8.30
2024-03-15T20:44:12.676Z,8.30
2024-03-15T20:46:41.878Z,8.30
2024-03-15T20:49:12.894Z,8.40
2024-03-15T20:51:41.545Z,8.30
2024-03-15T20:54:10.151Z,8.40
2024-03-15T20:56:38.662Z,8.40
2024-03-15T20:59:07.120Z,8.40
2024-03-15T21:01:35.645Z,8.40
2024-03-15T21:04:04.204Z,8.30
2024-03-15T21:06:35.068Z,8.30
2024-03-15T21:09:06.618Z,8.30
2024-03-15T21:11:35.205Z,8.30
2024-03-15T21:14:06.200Z,8.30
2024-03-15T21:16:34.689Z,8.40
2024-03-15T21:19:03.278Z,8.40
2024-03-15T21:21:31.809Z,8.40
2024-03-15T21:24:00.347Z,8.40
2024-03-15T21:26:29.228Z,8.40
2024-03-15T21:28:57.708Z,8.40
2024-03-15T21:31:26.169Z,8.50
2024-03-15T21:33:54.723Z,8.40
2024-03-15T21:36:23.988Z,8.40
2024-03-15T21:38:52.549Z,8.30
2024-03-15T21:41:20.997Z,8.30
2024-03-15T21:43:50.390Z,8.40
2024-03-15T21:46:23.291Z,8.50
2024-03-15T21:48:51.841Z,8.40
2024-03-15T21:51:23.049Z,8.50
2024-03-15T21:53:51.624Z,8.50
2024-03-15T21:56:21.632Z,8.50
2024-03-15T21:58:51.506Z,8.60
2024-03-15T22:01:20.568Z,8.60
2024-03-15T22:03:49.438Z,8.60
2024-03-15T22:06:16.987Z,8.60
2024-03-15T22:08:45.423Z,8.60
2024-03-15T22:11:13.937Z,8.60
2024-03-15T22:13:42.443Z,8.60
2024-03-15T22:16:12.363Z,8.60
2024-03-15T22:18:41.967Z,8.60
2024-03-15T22:21:10.463Z,8.70
2024-03-15T22:23:38.899Z,8.80
2024-03-15T22:26:07.918Z,8.90
2024-03-15T22:28:37.877Z,8.90
2024-03-15T22:31:06.492Z,8.80
2024-03-15T22:33:36.069Z,8.80
2024-03-15T22:36:05.332Z,8.80
2024-03-15T22:38:33.774Z,8.70
2024-03-15T22:41:02.306Z,8.70
2024-03-15T22:43:31.557Z,8.70
2024-03-15T22:46:00.794Z,8.70
2024-03-15T22:48:35.506Z,8.70
2024-03-15T22:51:04.028Z,8.70
2024-03-15T22:53:32.486Z,8.70
2024-03-15T22:56:00.982Z,8.70
2024-03-15T22:58:29.472Z,8.70
2024-03-15T23:01:00.413Z,8.70
2024-03-15T23:03:29.319Z,8.70
2024-03-15T23:05:57.870Z,8.70
2024-03-15T23:08:28.206Z,8.80
2024-03-15T23:10:56.677Z,8.80
2024-03-15T23:13:25.594Z,8.80
2024-03-15T23:15:55.897Z,8.80
2024-03-15T23:18:25.932Z,8.80
2024-03-15T23:20:54.665Z,8.90
2024-03-15T23:23:23.125Z,8.90
2024-03-15T23:25:51.581Z,8.90
2024-03-15T23:28:20.947Z,8.90
2024-03-15T23:30:49.480Z,8.90
2024-03-15T23:33:18.587Z,9.00
2024-03-15T23:35:49.712Z,9.00
2024-03-15T23:38:18.646Z,9.00
2024-03-15T23:40:47.122Z,9.00
2024-03-15T23:43:15.672Z,9.00
2024-03-15T23:45:44.239Z,9.00
2024-03-15T23:48:13.836Z,9.00
2024-03-15T23:50:42.323Z,9.10
2024-03-15T23:53:10.791Z,9.10
2024-03-15T23:55:39.288Z,9.10
2024-03-15T23:58:07.810Z,9.20
